Time;durP1;ratioP1;P1;durP2;ratioP2;P2;SDS_P1;SDS_P2;PMS_P1;PMS_P2;Temp;Humidity;BMP_temperature;BMP_pressure;BME280_temperature;BME280_humidity;BME280_pressure;Samples;Min_cycle;Max_cycle;Signal;HPM_P1;HPM_P2
2022/07/25 00:00:49;;;;;;;2.83;2.62;;;;;;;17.03;100.00;99143.84;4433951;32;20049;-75
2022/07/25 00:03:16;;;;;;;3.35;2.72;;;;;;;17.33;100.00;99163.66;4431347;32;20107;-75
2022/07/25 00:05:42;;;;;;;4.43;2.87;;;;;;;17.18;100.00;99136.62;4418381;32;20107;-72
2022/07/25 00:08:08;;;;;;;3.85;3.20;;;;;;;17.39;100.00;99156.22;4419472;32;20030;-73
2022/07/25 00:10:35;;;;;;;4.70;2.90;;;;;;;17.34;100.00;99148.94;4433471;32;20072;-73
2022/07/25 00:13:01;;;;;;;7.62;3.12;;;;;;;17.34;100.00;99148.94;4433543;32;20382;-73
2022/07/25 00:15:27;;;;;;;5.43;3.28;;;;;;;17.36;100.00;99149.47;4429709;32;20038;-73
2022/07/25 00:17:54;;;;;;;4.03;3.00;;;;;;;17.41;100.00;99138.50;4433551;32;20058;-73
2022/07/25 00:20:20;;;;;;;2.90;2.70;;;;;;;17.30;100.00;99144.38;4433354;32;20096;-74
2022/07/25 00:22:46;;;;;;;3.17;2.97;;;;;;;17.41;100.00;99143.94;4433489;32;20403;-74
2022/07/25 00:25:13;;;;;;;2.60;2.40;;;;;;;17.50;100.00;99146.00;4431136;32;20390;-75
2022/07/25 00:27:39;;;;;;;11.48;3.00;;;;;;;17.78;100.00;99175.03;4432693;32;20042;-74
2022/07/25 00:30:06;;;;;;;2.62;2.42;;;;;;;17.68;100.00;99167.00;4433232;32;20391;-73
2022/07/25 00:32:32;;;;;;;3.47;3.03;;;;;;;17.28;100.00;99117.47;4433406;32;20387;-74
2022/07/25 00:34:59;;;;;;;2.65;2.47;;;;;;;17.32;100.00;99131.28;4431738;32;20068;-73
2022/07/25 00:37:25;;;;;;;3.33;3.03;;;;;;;17.47;100.00;99124.81;4432137;32;20059;-74
2022/07/25 00:39:52;;;;;;;4.12;2.75;;;;;;;17.37;100.00;99109.44;4418789;32;20763;-73
2022/07/25 00:42:18;;;;;;;4.28;2.80;;;;;;;17.61;100.00;99152.94;4433184;32;20056;-74
2022/07/25 00:44:44;;;;;;;3.83;3.15;;;;;;;17.65;100.00;99147.72;4433131;32;20375;-73
2022/07/25 00:47:11;;;;;;;4.40;3.80;;;;;;;17.67;100.00;99151.75;4432817;32;20465;-73
2022/07/25 00:49:37;;;;;;;3.50;2.95;;;;;;;17.38;100.00;99116.50;4431147;32;20119;-73
2022/07/25 00:52:04;;;;;;;3.22;2.92;;;;;;;17.42;100.00;99155.63;4432833;32;20046;-72
2022/07/25 00:54:31;;;;;;;8.02;3.37;;;;;;;17.22;100.00;99151.28;4432906;32;20357;-73
2022/07/25 00:56:58;;;;;;;8.68;3.20;;;;;;;16.99;100.00;99099.31;4433071;32;20457;-73
2022/07/25 00:59:24;;;;;;;3.22;2.92;;;;;;;17.34;100.00;99148.94;4432908;32;20046;-74
2022/07/25 01:01:51;;;;;;;3.72;3.42;;;;;;;16.93;100.00;99103.19;4430751;32;20068;-73
2022/07/25 01:04:17;;;;;;;5.22;3.42;;;;;;;16.84;100.00;99096.72;4429503;32;20089;-73
2022/07/25 01:06:44;;;;;;;4.12;3.10;;;;;;;17.17;100.00;99148.63;4432959;32;20423;-73
2022/07/25 01:09:10;;;;;;;3.37;3.03;;;;;;;17.08;100.00;99112.28;4432828;32;20047;-74
2022/07/25 01:11:37;;;;;;;3.60;2.95;;;;;;;17.17;100.00;99148.63;4432959;32;20086;-74
2022/07/25 01:14:04;;;;;;;3.58;3.25;;;;;;;16.89;100.00;99121.19;4430889;32;20033;-73
2022/07/25 01:16:31;;;;;;;3.60;3.30;;;;;;;17.04;100.00;99156.38;4432545;32;20050;-74
2022/07/25 01:18:57;;;;;;;4.93;3.28;;;;;;;16.86;100.00;99124.47;4417108;32;20026;-73
2022/07/25 01:21:24;;;;;;;4.00;3.58;;;;;;;17.03;100.00;99148.50;4432620;32;20056;-74
2022/07/25 01:23:50;;;;;;;3.30;3.00;;;;;;;16.72;100.00;99116.19;4431505;32;20365;-74
2022/07/25 01:26:17;;;;;;;3.75;3.45;;;;;;;16.70;100.00;99112.91;4432239;32;20046;-74
2022/07/25 01:28:43;;;;;;;6.10;3.70;;;;;;;16.98;100.00;99141.19;4431711;32;20038;-73
2022/07/25 01:31:09;;;;;;;5.75;3.50;;;;;;;16.73;100.00;99111.53;4432466;32;20112;-74
2022/07/25 01:33:36;;;;;;;6.15;3.92;;;;;;;16.93;100.00;99148.59;4418515;32;20073;-73
2022/07/25 01:36:02;;;;;;;5.62;3.62;;;;;;;16.97;100.00;99149.66;4430063;32;20042;-72
2022/07/25 01:38:29;;;;;;;9.30;4.12;;;;;;;16.85;100.00;99115.50;4418123;32;20038;-72
2022/07/25 01:40:55;;;;;;;6.18;3.78;;;;;;;16.94;100.00;99117.59;4416614;32;20056;-73
2022/07/25 01:43:21;;;;;;;4.12;3.72;;;;;;;16.94;100.00;99118.38;4432371;32;20068;-72
2022/07/25 01:45:48;;;;;;;4.07;3.72;;;;;;;16.94;100.00;99099.34;4429195;32;20046;-75
2022/07/25 01:48:14;;;;;;;4.75;3.90;;;;;;;17.00;100.00;99114.50;4431015;32;20063;-72
2022/07/25 01:50:40;;;;;;;7.18;4.00;;;;;;;17.03;100.00;99143.84;4432268;32;20119;-72
2022/07/25 01:53:07;;;;;;;6.05;4.25;;;;;;;16.99;100.00;99134.66;4432308;32;20072;-72
2022/07/25 01:55:33;;;;;;;5.12;4.62;;;;;;;16.74;100.00;99108.53;4417319;32;20374;-72
2022/07/25 01:57:59;;;;;;;4.53;3.53;;;;;;;16.83;100.00;99134.00;4432000;32;20038;-72
2022/07/25 02:00:26;;;;;;;3.55;3.25;;;;;;;16.74;100.00;99124.00;4413483;32;20086;-73
2022/07/25 02:03:28;;;;;;;7.62;3.40;;;;;;;16.89;100.00;99129.34;4431257;32;20046;-73
2022/07/25 02:05:40;;;;;;;4.22;3.83;;;;;;;16.58;100.00;99093.47;4431598;32;20431;-72
2022/07/25 02:08:06;;;;;;;4.57;4.15;;;;;;;16.87;100.00;99128.81;4429196;32;20111;-75
2022/07/25 02:10:33;;;;;;;5.00;3.90;;;;;;;16.52;100.00;99079.13;4417842;32;20045;-74
2022/07/25 02:13:00;;;;;;;4.70;4.30;;;;;;;16.80;100.00;99117.44;4432236;32;20046;-74
2022/07/25 02:15:26;;;;;;;7.80;5.25;;;;;;;16.28;100.00;99041.88;4432109;32;20512;-74
2022/07/25 02:17:53;;;;;;;13.50;5.32;;;;;;;16.28;100.00;99001.13;4431738;32;20023;-74
2022/07/25 02:20:19;;;;;;;6.68;4.53;;;;;;;16.81;100.00;99086.44;4427385;32;20435;-74
2022/07/25 02:22:52;;;;;;;7.18;4.03;;;;;;;16.79;100.00;99073.13;4429880;32;20038;-74
2022/07/25 02:25:18;;;;;;;14.57;4.30;;;;;;;16.76;100.00;99068.28;4432237;32;20033;-73
2022/07/25 02:27:44;;;;;;;7.30;5.03;;;;;;;17.17;100.00;99105.09;4418031;32;20108;-73
2022/07/25 02:30:11;;;;;;;6.37;4.53;;;;;;;17.23;100.00;99093.00;4429964;32;20089;-74
2022/07/25 02:32:37;;;;;;;6.12;3.62;;;;;;;17.48;100.00;99108.19;4431911;32;20064;-74
2022/07/25 02:35:05;;;;;;;6.62;4.28;;;;;;;17.33;100.00;99068.41;4432015;32;20356;-73
2022/07/25 02:37:32;;;;;;;5.53;3.87;;;;;;;17.50;100.00;99092.38;4432102;32;20035;-72
2022/07/25 02:39:58;;;;;;;4.65;3.70;;;;;;;17.69;100.00;99114.16;4429277;32;20022;-76
2022/07/25 02:42:25;;;;;;;4.80;3.62;;;;;;;17.43;100.00;99091.94;4431447;32;20054;-75
2022/07/25 02:44:51;;;;;;;6.82;3.45;;;;;;;17.61;100.00;99109.37;4431940;32;20052;-74
2022/07/25 02:47:18;;;;;;;4.25;3.85;;;;;;;17.38;100.00;99089.28;4431783;32;20030;-73
2022/07/25 02:49:44;;;;;;;6.70;3.78;;;;;;;17.55;100.00;99116.81;4434661;32;20050;-73
2022/07/25 02:52:10;;;;;;;4.68;3.80;;;;;;;17.43;100.00;99076.41;4431684;32;20035;-74
2022/07/25 02:54:37;;;;;;;5.07;3.83;;;;;;;17.48;100.00;99110.13;4419820;32;20073;-73
2022/07/25 02:57:03;;;;;;;6.72;4.28;;;;;;;17.29;100.00;99064.63;4434618;32;20067;-73
2022/07/25 02:59:29;;;;;;;9.95;4.68;;;;;;;17.31;100.00;99083.38;4434867;32;20042;-73
2022/07/25 03:01:55;;;;;;;5.70;3.95;;;;;;;17.41;100.00;99111.28;4434687;32;20325;-75
2022/07/25 03:04:22;;;;;;;4.55;4.10;;;;;;;17.35;100.00;99117.91;4432355;32;20042;-75
2022/07/25 03:06:48;;;;;;;18.25;4.90;;;;;;;17.22;100.00;99081.34;4434214;32;20120;-73
2022/07/25 03:09:15;;;;;;;5.10;4.55;;;;;;;17.18;100.00;99074.88;4434564;32;20059;-74
2022/07/25 03:11:41;;;;;;;5.00;4.32;;;;;;;17.23;100.00;99103.91;4434266;32;20046;-73
2022/07/25 03:14:08;;;;;;;4.65;3.90;;;;;;;16.98;100.00;99080.56;4419588;32;20026;-72
2022/07/25 06:30:49;;;;;;;2.62;1.67;;;;;;;21.60;100.00;99031.53;4428271;32;20096;-72
2022/07/25 06:33:16;;;;;;;1.85;1.67;;;;;;;21.74;100.00;99026.69;4433192;32;20115;-72
2022/07/25 06:35:43;;;;;;;1.67;1.58;;;;;;;21.36;100.00;98991.75;4434931;32;20069;-72
2022/07/25 06:38:09;;;;;;;4.18;2.15;;;;;;;21.64;100.00;99027.03;4434844;32;20379;-73
2022/07/25 06:40:36;;;;;;;6.50;1.58;;;;;;;21.87;100.00;99029.59;4434763;32;20038;-73
2022/07/25 06:43:02;;;;;;;3.15;2.00;;;;;;;21.80;100.00;98990.91;4432776;32;20160;-75
2022/07/25 06:45:28;;;;;;;6.28;1.80;;;;;;;21.90;100.00;99017.97;4434750;32;20918;-73
2022/07/25 06:48:01;;;;;;;9.50;1.95;;;;;;;21.49;100.00;98926.16;4402002;32;20176;-74
2022/07/25 06:50:28;;;;;;;1.85;1.75;;;;;;;21.87;100.00;98986.53;4401886;32;20370;-73
2022/07/25 06:52:54;;;;;;;2.33;1.70;;;;;;;21.91;100.00;98998.47;4401649;32;20047;-72
2022/07/25 06:55:20;;;;;;;9.00;2.40;;;;;;;21.79;100.00;98964.63;4398566;32;20098;-73
2022/07/25 06:57:47;;;;;;;2.30;1.55;;;;;;;21.98;100.00;98967.81;4401483;32;20100;-73
2022/07/25 07:00:14;;;;;;;6.53;1.80;;;;;;;22.21;100.00;98997.72;4401717;32;20068;-72
2022/07/25 07:02:59;;;;;;;3.05;1.95;;;;;;;22.25;100.00;99012.41;4401556;32;20424;-73
2022/07/25 07:05:29;;;;;;;3.25;1.90;;;;;;;21.45;100.00;98953.38;4401720;32;20967;-73
2022/07/25 07:07:56;;;;;;;1.95;1.83;;;;;;;21.85;100.00;98977.84;4370743;32;20027;-73
2022/07/25 07:10:23;;;;;;;8.00;1.80;;;;;;;22.24;100.00;99008.88;4371098;32;20023;-73
2022/07/25 07:12:50;;;;;;;3.30;2.05;;;;;;;22.51;100.00;99003.28;4368919;32;20032;-74
2022/07/25 07:15:16;;;;;;;7.60;1.77;;;;;;;21.99;100.00;99002.31;4370935;32;20885;-73
2022/07/25 07:17:43;;;;;;;4.97;1.83;;;;;;;21.99;100.00;98939.28;4371281;32;20053;-74
2022/07/25 07:20:10;;;;;;;10.43;3.10;;;;;;;22.27;100.00;98966.25;4399284;32;20064;-74
2022/07/25 07:22:44;;;;;;;6.90;3.62;;;;;;;22.51;100.00;98986.81;4401398;32;20415;-74
2022/07/25 07:25:16;;;;;;;2.22;1.87;;;;;;;22.66;100.00;99005.50;4362334;32;20047;-73
2022/07/25 07:27:43;;;;;;;4.70;1.90;;;;;;;22.64;100.00;99013.22;4363169;32;20066;-73
2022/07/25 07:30:10;;;;;;;3.25;2.72;;;;;;;22.50;100.00;98975.06;4364426;32;20040;-73
2022/07/25 07:32:37;;;;;;;5.07;1.62;;;;;;;22.43;100.00;98964.63;4361129;32;20039;-74
2022/07/25 07:35:04;;;;;;;1.85;1.73;;;;;;;22.67;100.00;98990.62;4364229;32;20102;-75
2022/07/25 07:37:30;;;;;;;6.72;1.83;;;;;;;22.69;100.00;98966.41;4364614;32;20020;-74
2022/07/25 07:39:57;;;;;;;7.85;2.00;;;;;;;22.57;100.00;98997.28;4388158;32;20100;-74
2022/07/25 07:42:23;;;;;;;3.03;2.12;;;;;;;22.93;100.00;98993.22;4392146;32;20086;-73
2022/07/25 07:44:56;;;;;;;9.75;2.50;;;;;;;22.88;100.00;98989.84;4392397;32;20114;-74
2022/07/25 07:47:23;;;;;;;2.45;1.98;;;;;;;23.03;100.00;98970.06;4392760;32;20113;-74
2022/07/25 07:49:49;;;;;;;5.65;2.00;;;;;;;22.93;100.00;98959.44;4393366;32;20440;-73
2022/07/25 07:52:16;;;;;;;18.35;3.72;;;;;;;22.73;100.00;98948.13;4393509;32;20041;-74
2022/07/25 07:57:27;;;;;;;3.95;1.70;;;;;;;22.89;100.00;98972.25;4432858;32;20102;-74
2022/07/25 07:59:54;;;;;;;5.97;1.90;;;;;;;22.94;100.00;98941.84;4406584;32;20098;-74
2022/07/25 08:02:20;;;;;;;3.75;1.90;;;;;;;22.56;100.00;98945.47;4391116;32;20027;-74
2022/07/25 08:04:47;;;;;;;3.65;1.87;;;;;;;22.95;100.00;98962.69;4390834;32;20115;-75
2022/07/25 08:07:13;;;;;;;7.05;2.10;;;;;;;23.23;100.00;98971.19;4392655;32;20349;-74
2022/07/25 08:09:40;;;;;;;3.72;1.90;;;;;;;23.23;100.00;98978.66;4391201;32;20023;-74
2022/07/25 08:12:06;;;;;;;6.78;1.90;;;;;;;23.24;100.00;98969.28;4392639;32;20115;-74
2022/07/25 08:14:33;;;;;;;6.32;1.73;;;;;;;23.10;100.00;98964.06;4389703;32;20052;-75
2022/07/25 08:16:59;;;;;;;2.33;1.60;;;;;;;23.04;100.00;98939.50;4390468;32;20019;-73
2022/07/25 08:19:25;;;;;;;2.53;1.55;;;;;;;23.09;100.00;98941.28;4391898;32;20050;-73
2022/07/25 08:21:52;;;;;;;3.72;1.50;;;;;;;23.48;100.00;98963.87;4391901;32;20049;-74
2022/07/25 08:24:18;;;;;;;1.60;1.40;;;;;;;23.07;99.59;98964.69;4392742;32;20341;-74
2022/07/25 08:26:44;;;;;;;4.18;1.92;;;;;;;23.26;100.00;98942.28;4393005;32;20511;-76
2022/07/25 08:29:11;;;;;;;6.43;1.50;;;;;;;23.14;100.00;98932.84;4390346;32;20031;-73
2022/07/25 08:31:37;;;;;;;2.08;1.48;;;;;;;23.52;100.00;98926.34;4395192;32;20057;-74
2022/07/25 08:34:03;;;;;;;3.72;1.65;;;;;;;23.81;100.00;98951.31;4384257;32;20061;-73
2022/07/25 08:36:30;;;;;;;6.87;2.08;;;;;;;23.81;100.00;98957.59;4385041;32;20057;-74
2022/07/25 08:38:56;;;;;;;5.18;1.70;;;;;;;23.80;100.00;98935.94;4394230;32;20408;-74
2022/07/25 08:41:23;;;;;;;3.97;1.77;;;;;;;23.68;100.00;98901.00;4400023;32;20055;-73
2022/07/25 08:43:50;;;;;;;1.90;1.67;;;;;;;23.74;100.00;98927.09;4399977;32;20048;-73
2022/07/25 08:46:24;;;;;;;2.22;1.52;;;;;;;24.09;100.00;98955.03;4376353;32;20049;-72
2022/07/25 08:48:51;;;;;;;2.33;1.20;;;;;;;23.70;99.84;98868.47;4367579;32;20044;-73
2022/07/25 08:51:17;;;;;;;2.58;1.50;;;;;;;24.44;92.14;98953.78;4369822;32;20451;-72
2022/07/25 08:53:44;;;;;;;2.78;1.40;;;;;;;24.11;92.74;98930.75;4369791;32;20035;-74
2022/07/25 08:56:11;;;;;;;5.28;1.73;;;;;;;23.99;95.83;98933.47;4401341;32;20027;-74
2022/07/25 08:58:38;;;;;;;3.83;1.92;;;;;;;23.79;97.62;98946.12;4404923;32;20190;-76
2022/07/25 09:01:05;;;;;;;7.07;1.98;;;;;;;24.28;93.96;98946.25;4405639;32;20045;-73
2022/07/25 09:03:31;;;;;;;4.68;1.80;;;;;;;24.54;93.02;98942.34;4409034;32;20071;-73
2022/07/25 09:05:57;;;;;;;1.95;1.52;;;;;;;24.58;82.91;98947.97;4405122;32;20419;-73
2022/07/25 09:08:24;;;;;;;2.15;1.55;;;;;;;24.50;86.37;98874.56;4407365;32;20065;-73
2022/07/25 09:10:52;;;;;;;4.40;2.17;;;;;;;24.80;88.15;98939.22;4405334;32;20056;-74
2022/07/25 09:13:22;;;;;;;1.65;1.55;;;;;;;24.63;91.37;98918.25;4392123;32;20042;-73
2022/07/25 09:15:55;;;;;;;1.92;1.35;;;;;;;24.96;93.61;98942.06;4391759;32;20035;-73
2022/07/25 09:18:24;;;;;;;3.30;1.55;;;;;;;24.84;83.61;98950.34;4398583;32;20039;-73
2022/07/25 09:20:58;;;;;;;1.90;1.77;;;;;;;24.92;80.03;98952.19;4397356;32;20057;-73
2022/07/25 09:23:33;;;;;;;3.08;1.60;;;;;;;24.72;79.51;98920.09;4399650;32;20060;-74
2022/07/25 09:26:04;;;;;;;2.62;1.65;;;;;;;24.91;80.64;98939.56;4354120;32;20024;-73
2022/07/25 09:28:31;;;;;;;2.33;1.37;;;;;;;24.87;71.74;98933.13;4352870;32;20107;-74
2022/07/25 09:30:59;;;;;;;5.40;1.60;;;;;;;24.94;75.50;98938.84;4354154;32;20554;-73
2022/07/25 09:33:27;;;;;;;7.00;1.80;;;;;;;25.10;77.29;98914.13;4354323;32;20023;-73
2022/07/25 09:35:55;;;;;;;3.78;1.33;;;;;;;25.06;71.36;98934.47;4353092;32;20036;-73
2022/07/25 09:38:23;;;;;;;4.12;1.52;;;;;;;25.12;78.71;98909.06;4323490;33;20047;-76
2022/07/25 09:41:00;;;;;;;10.57;3.00;;;;;;;25.24;77.45;98902.72;4324440;33;20058;-74
2022/07/25 09:43:41;;;;;;;4.45;1.95;;;;;;;25.38;81.07;98919.69;4327816;32;20127;-73
2022/07/25 09:46:14;;;;;;;6.97;1.62;;;;;;;25.55;82.54;98929.56;4351327;32;20404;-73
2022/07/25 09:48:43;;;;;;;6.60;1.70;;;;;;;25.32;80.60;98893.53;4323997;33;20036;-74
2022/07/25 09:51:10;;;;;;;2.40;1.52;;;;;;;24.73;70.08;98855.59;4309855;33;20041;-74
2022/07/25 09:53:36;;;;;;;1.98;1.87;;;;;;;25.09;73.84;98881.44;4310161;33;20025;-73
2022/07/25 09:56:03;;;;;;;2.17;1.52;;;;;;;25.09;72.49;98878.69;4309215;33;20364;-73
2022/07/25 09:58:29;;;;;;;4.30;1.58;;;;;;;25.28;68.21;98894.59;4316531;33;20136;-73
2022/07/25 10:01:00;;;;;;;4.95;1.60;;;;;;;25.18;72.36;98907.66;4319565;33;20056;-74
2022/07/25 10:03:47;;;;;;;1.75;1.48;;;;;;;25.24;72.85;98907.41;4319797;33;20098;-74
2022/07/25 10:06:23;;;;;;;2.90;1.23;;;;;;;25.24;74.66;98883.44;4317893;33;20066;-74
2022/07/25 10:08:52;;;;;;;1.70;1.52;;;;;;;25.62;76.52;98878.56;4320127;33;20044;-73
2022/07/25 10:11:25;;;;;;;4.15;1.40;;;;;;;25.62;69.44;98875.78;4319626;33;20061;-74
2022/07/25 10:13:53;;;;;;;2.75;2.15;;;;;;;25.74;68.70;98865.47;4320431;33;20773;-73
2022/07/25 10:16:22;;;;;;;5.57;1.30;;;;;;;26.04;71.48;98895.41;4338038;32;20035;-74
2022/07/25 10:18:51;;;;;;;1.73;1.40;;;;;;;26.16;67.88;98882.69;4350904;32;20028;-74
2022/07/25 10:21:19;;;;;;;6.35;1.55;;;;;;;25.28;63.17;98832.00;4372106;32;20073;-74
2022/07/25 10:23:57;;;;;;;1.42;1.33;;;;;;;25.96;64.15;98882.59;4386396;32;20027;-73
2022/07/25 10:26:24;;;;;;;2.70;2.45;;;;;;;26.16;63.88;98853.13;4386611;32;20057;-73
2022/07/25 10:28:53;;;;;;;3.30;2.30;;;;;;;26.13;62.21;98809.69;4385314;32;20060;-74
2022/07/25 10:31:25;;;;;;;1.77;1.58;;;;;;;26.46;59.17;98878.25;4384688;32;20097;-74
2022/07/25 10:34:03;;;;;;;2.95;1.37;;;;;;;26.60;61.39;98871.47;4371164;32;20061;-73
2022/07/25 10:36:46;;;;;;;8.27;1.92;;;;;;;26.74;56.67;98871.81;4402361;32;20090;-74
2022/07/25 10:39:16;;;;;;;1.98;1.70;;;;;;;26.71;58.51;98842.16;4413555;32;20721;-74
2022/07/25 10:41:48;;;;;;;3.12;1.75;;;;;;;26.91;56.92;98861.47;4394559;32;20463;-73
2022/07/25 10:44:15;;;;;;;6.43;1.58;;;;;;;27.17;58.72;98872.69;4390024;32;20050;-73
2022/07/25 10:46:43;;;;;;;8.85;4.82;;;;;;;26.91;56.34;98864.25;4394917;32;20057;-76
2022/07/25 10:49:24;;;;;;;7.37;1.62;;;;;;;27.15;55.71;98860.38;4388628;32;20053;-73
2022/07/25 10:51:56;;;;;;;1.62;1.52;;;;;;;26.88;55.50;98837.34;4394301;32;20051;-73
2022/07/25 10:54:22;;;;;;;2.65;1.73;;;;;;;27.00;55.51;98790.25;4393847;32;20053;-74
2022/07/25 10:56:51;;;;;;;3.20;1.70;;;;;;;26.74;53.38;98816.56;4392589;32;20027;-74
2022/07/25 10:59:26;;;;;;;3.90;1.60;;;;;;;27.73;54.32;98853.94;4391644;32;20051;-74
2022/07/25 11:01:53;;;;;;;4.75;1.33;;;;;;;27.58;53.68;98824.47;4392776;32;20035;-73
2022/07/25 11:04:20;;;;;;;4.32;1.87;;;;;;;27.53;50.33;98807.00;4394334;32;20093;-74
2022/07/25 11:06:46;;;;;;;7.18;1.92;;;;;;;27.64;48.00;98831.28;4407713;32;20023;-74
2022/07/25 11:09:14;;;;;;;5.20;1.40;;;;;;;27.54;46.56;98836.25;4407418;32;20038;-73
2022/07/25 11:11:47;;;;;;;1.75;1.37;;;;;;;28.03;45.97;98856.06;4406783;32;20043;-73
2022/07/25 11:14:17;;;;;;;3.20;1.70;;;;;;;28.71;43.06;98856.28;4431780;32;20037;-73
2022/07/25 11:16:45;;;;;;;5.28;1.80;;;;;;;28.58;42.52;98820.50;4396945;32;20027;-74
2022/07/25 11:19:20;;;;;;;2.25;1.50;;;;;;;28.18;44.12;98844.03;4398917;32;20032;-75
2022/07/25 11:22:07;;;;;;;7.15;2.90;;;;;;;29.18;45.49;98829.88;4399287;32;20062;-74
2022/07/25 11:24:42;;;;;;;2.53;1.90;;;;;;;29.64;42.40;98807.38;4399820;32;20052;-72
2022/07/25 11:27:11;;;;;;;3.15;1.40;;;;;;;29.42;43.34;98825.00;4401021;32;20099;-73
2022/07/25 11:29:38;;;;;;;4.45;1.58;;;;;;;29.83;42.73;98825.00;4370871;32;20365;-73
2022/07/25 11:32:07;;;;;;;1.55;1.45;;;;;;;29.20;42.17;98826.75;4368022;32;20031;-74
2022/07/25 11:34:51;;;;;;;3.53;1.60;;;;;;;29.49;40.94;98822.31;4341240;33;20078;-73
2022/07/25 11:37:19;;;;;;;1.85;1.48;;;;;;;29.24;39.86;98805.44;4339280;33;20515;-74
2022/07/25 11:39:46;;;;;;;3.45;1.50;;;;;;;30.01;40.30;98823.16;4332717;33;20054;-74
2022/07/25 11:42:16;;;;;;;3.60;1.50;;;;;;;29.48;40.32;98815.16;4332502;33;20747;-74
2022/07/25 11:44:49;;;;;;;3.53;1.60;;;;;;;29.57;41.40;98812.09;4338656;33;20168;-74
2022/07/25 11:47:29;;;;;;;5.72;1.70;;;;;;;30.46;38.83;98805.59;4317063;33;20058;-75
2022/07/25 11:49:58;;;;;;;5.70;2.20;;;;;;;30.70;37.53;98790.22;4333585;33;20062;-73
2022/07/25 11:52:25;;;;;;;3.30;1.85;;;;;;;31.29;38.00;98801.12;4333348;33;20451;-74
2022/07/25 11:54:52;;;;;;;1.85;1.70;;;;;;;31.53;36.34;98787.66;4332703;33;20028;-75
2022/07/25 11:57:23;;;;;;;6.03;1.70;;;;;;;31.05;35.86;98781.25;4331308;33;20020;-74
2022/07/25 11:59:50;;;;;;;2.83;1.83;;;;;;;30.35;37.65;98792.44;4313537;33;20378;-74
2022/07/25 12:02:22;;;;;;;2.97;2.00;;;;;;;30.23;38.33;98792.75;4340632;33;20040;-74
2022/07/25 12:04:55;;;;;;;8.32;2.00;;;;;;;30.89;36.30;98783.53;4342304;32;20054;-74
2022/07/25 12:07:34;;;;;;;1.40;1.30;;;;;;;29.67;37.07;98789.19;4347141;32;20044;-74
2022/07/25 12:10:00;;;;;;;1.80;1.62;;;;;;;30.51;38.69;98741.38;4347666;32;20072;-73
2022/07/25 12:12:27;;;;;;;4.32;1.25;;;;;;;31.12;35.88;98775.69;4348164;32;20048;-73
2022/07/25 12:14:53;;;;;;;1.60;1.50;;;;;;;31.49;36.45;98777.31;4346279;32;20377;-74
2022/07/25 12:17:20;;;;;;;3.72;1.35;;;;;;;31.47;35.06;98771.34;4349496;32;20075;-73
2022/07/25 12:19:46;;;;;;;7.62;1.60;;;;;;;30.56;36.58;98772.31;4376046;32;20053;-74
2022/07/25 12:22:12;;;;;;;5.12;1.83;;;;;;;31.71;36.43;98749.50;4377304;32;20057;-73
2022/07/25 12:24:39;;;;;;;1.50;1.50;;;;;;;31.84;36.59;98736.75;4378923;32;20057;-73
2022/07/25 12:27:05;;;;;;;1.50;1.40;;;;;;;32.10;37.67;98743.09;4351678;32;20491;-72
2022/07/25 12:29:32;;;;;;;10.30;1.58;;;;;;;31.04;35.85;98743.50;4354933;32;20401;-73
2022/07/25 12:31:58;;;;;;;3.08;1.37;;;;;;;31.19;37.22;98730.41;4382206;32;20220;-73
2022/07/25 12:34:24;;;;;;;1.65;1.55;;;;;;;30.90;37.43;98690.63;4385051;32;20471;-73
2022/07/25 12:36:51;;;;;;;2.00;1.45;;;;;;;31.76;35.96;98751.87;4382844;32;20080;-73
2022/07/25 12:39:18;;;;;;;1.80;1.70;;;;;;;31.67;34.55;98737.56;4382071;32;20053;-74
2022/07/25 12:41:44;;;;;;;1.60;1.50;;;;;;;32.16;33.94;98738.69;4384463;32;20047;-74
2022/07/25 12:44:11;;;;;;;2.33;1.52;;;;;;;32.75;36.41;98737.28;4384981;32;20109;-73
2022/07/25 12:46:40;;;;;;;1.90;1.70;;;;;;;32.33;33.04;98727.91;4384760;32;20540;-73
2022/07/25 12:49:06;;;;;;;2.00;1.90;;;;;;;31.92;34.02;98747.91;4382229;32;20039;-74
2022/07/25 12:51:32;;;;;;;1.87;1.77;;;;;;;32.05;35.95;98707.28;4383760;32;20408;-73
2022/07/25 12:53:59;;;;;;;6.10;1.87;;;;;;;32.85;33.53;98725.28;4384803;32;20393;-73
2022/07/25 12:56:25;;;;;;;1.98;1.80;;;;;;;31.89;33.31;98732.00;4384620;32;20069;-73
2022/07/25 12:58:52;;;;;;;1.92;1.70;;;;;;;32.19;33.59;98723.97;4388554;32;20039;-74
2022/07/25 13:01:18;;;;;;;2.35;1.25;;;;;;;32.11;33.91;98716.84;4390955;32;20077;-74
2022/07/25 13:03:45;;;;;;;1.67;1.60;;;;;;;31.71;34.85;98688.28;4391174;32;20216;-75
2022/07/25 13:06:11;;;;;;;4.62;1.48;;;;;;;30.68;36.79;98704.47;4393143;32;20030;-73
2022/07/25 13:08:37;;;;;;;5.25;1.73;;;;;;;30.93;37.09;98678.72;4369152;32;20406;-73
2022/07/25 13:11:04;;;;;;;6.62;1.98;;;;;;;30.88;36.35;98698.59;4369394;32;20099;-74
2022/07/25 13:13:30;;;;;;;6.57;2.08;;;;;;;30.71;36.90;98666.78;4367755;32;20036;-73
2022/07/25 13:15:58;;;;;;;2.37;1.62;;;;;;;29.93;37.41;98668.09;4377207;32;20847;-74
2022/07/25 13:18:31;;;;;;;1.27;1.27;;;;;;;29.91;37.57;98665.69;4395195;32;20046;-73
2022/07/25 13:20:59;;;;;;;7.25;1.30;;;;;;;30.52;37.19;98681.81;4399672;32;20029;-74
2022/07/25 13:23:25;;;;;;;14.15;2.30;;;;;;;29.49;36.78;98628.97;4397483;32;20045;-74
2022/07/25 13:26:00;;;;;;;2.47;1.42;;;;;;;30.19;36.28;98653.16;4399399;32;20047;-74
2022/07/25 13:28:26;;;;;;;3.17;1.60;;;;;;;30.53;36.53;98650.09;4399496;32;20451;-74
2022/07/25 13:30:52;;;;;;;3.10;1.65;;;;;;;29.97;36.67;98680.78;4399727;32;20027;-74
2022/07/25 13:33:19;;;;;;;5.95;1.23;;;;;;;30.47;36.50;98682.22;4397353;32;20059;-76
2022/07/25 13:35:46;;;;;;;4.12;2.08;;;;;;;30.85;37.30;98669.59;4400107;32;20043;-73
2022/07/25 13:38:12;;;;;;;1.42;1.33;;;;;;;30.27;36.51;98649.19;4399309;32;20027;-72
2022/07/25 13:40:41;;;;;;;2.37;1.50;;;;;;;29.40;37.43;98636.84;4399380;32;20074;-73
2022/07/25 13:43:12;;;;;;;5.53;1.98;;;;;;;29.79;37.81;98618.84;4396274;32;20064;-75
2022/07/25 13:45:39;;;;;;;8.05;1.60;;;;;;;30.18;36.51;98662.66;4399412;32;20078;-73
2022/07/25 13:48:06;;;;;;;4.57;1.55;;;;;;;29.92;37.19;98658.97;4430075;32;20078;-74
2022/07/25 13:50:33;;;;;;;2.65;1.40;;;;;;;30.04;35.95;98653.06;4432011;32;20042;-73
2022/07/25 13:53:00;;;;;;;3.30;1.17;;;;;;;30.41;36.47;98654.81;4431632;32;20068;-74
2022/07/25 13:55:27;;;;;;;5.45;1.62;;;;;;;30.77;36.40;98615.97;4430825;32;20048;-73
2022/07/25 13:57:54;;;;;;;2.45;1.37;;;;;;;30.41;35.80;98618.72;4432051;32;20054;-73
2022/07/25 14:00:21;;;;;;;4.95;1.30;;;;;;;30.99;35.69;98621.59;4430784;32;20378;-74
2022/07/25 14:02:47;;;;;;;2.25;1.37;;;;;;;30.83;34.78;98612.81;4431973;32;20030;-73
2022/07/25 14:05:14;;;;;;;5.30;1.60;;;;;;;30.29;36.68;98601.59;4398022;32;20020;-73
2022/07/25 14:07:40;;;;;;;2.28;1.42;;;;;;;30.27;36.14;98620.63;4395741;32;20120;-73
2022/07/25 14:10:07;;;;;;;2.67;1.35;;;;;;;29.79;36.28;98585.56;4398869;32;20107;-75
2022/07/25 14:12:34;;;;;;;4.85;1.50;;;;;;;29.44;37.00;98598.03;4399098;32;20525;-72
2022/07/25 14:15:01;;;;;;;3.65;1.70;;;;;;;29.61;37.35;98618.75;4399157;32;20080;-72
2022/07/25 14:17:28;;;;;;;7.50;1.80;;;;;;;30.13;37.10;98586.09;4366029;32;20035;-72
2022/07/25 14:19:54;;;;;;;4.07;1.20;;;;;;;30.43;36.55;98596.91;4368168;32;20028;-73
2022/07/25 14:22:20;;;;;;;1.70;1.33;;;;;;;30.08;35.35;98589.25;4368903;32;20076;-73
2022/07/25 14:24:47;;;;;;;7.22;1.80;;;;;;;30.28;34.80;98608.34;4366395;32;20174;-73
2022/07/25 14:27:13;;;;;;;3.22;1.25;;;;;;;30.34;35.10;98582.56;4368647;32;20413;-73
2022/07/25 14:29:39;;;;;;;2.03;1.40;;;;;;;29.89;35.81;98595.94;4366909;32;20083;-75
2022/07/25 14:32:07;;;;;;;1.37;1.20;;;;;;;29.65;35.41;98587.06;4308610;33;20067;-73
2022/07/25 14:34:34;;;;;;;4.30;1.55;;;;;;;29.70;35.93;98600.56;4309500;33;20025;-73
2022/07/25 14:37:01;;;;;;;7.05;1.30;;;;;;;29.66;36.01;98598.94;4309608;33;20029;-73
2022/07/25 14:39:28;;;;;;;2.37;1.42;;;;;;;29.86;36.39;98596.69;4309324;33;20049;-75
2022/07/25 14:41:54;;;;;;;5.50;1.40;;;;;;;29.63;35.86;98583.91;4310468;33;20072;-74
2022/07/25 14:44:21;;;;;;;1.98;1.70;;;;;;;29.44;35.99;98595.25;4325259;33;20057;-72
2022/07/25 14:46:48;;;;;;;4.35;1.67;;;;;;;29.75;36.17;98584.75;4324530;33;20051;-74
2022/07/25 14:49:15;;;;;;;5.78;1.30;;;;;;;30.43;34.49;98580.25;4326888;33;20021;-73